KBVY/BVY METAR and TAF weather

Enter ICAO airport designator
Station Type Date Time Source
KBVY METAR 2021/05/15 21:53 UTC NOAA

KBVY 152153Z 14009KT 10SM CLR 21/09 A3014 RMK AO2 SLP201 T02060089


Station Type Date Time Source
KBVY Decoded METAR 2021/05/15 21:53 UTC NOAA

BEVERLY MUNICIPAL AIRPORT, MA, United States (KBVY) 42-35N 070-55W 28M
May 15, 2021 - 05:53 PM EDT / 2021.05.15 2153 UTC
Wind: from the SE (140 degrees) at 10 MPH (9 KT):0
Visibility: 10 mile(s):0
Sky conditions: clear
Temperature: 69.1 F (20.6 C)
Dew Point: 48.0 F (8.9 C)
Relative Humidity: 46%
Pressure (altimeter): 30.14 in. Hg (1020 hPa)
ob: KBVY 152153Z 14009KT 10SM CLR 21/09 A3014 RMK AO2 SLP201 T02060089
cycle: 22

Station Type Date Time Source
KBVY TAF UTC NOAA

Error!

Example: see airport list